Flight Track Log - Related Links

Times and Time Zones

All times are in EDT time to prevent confusion due to time zone crossing. See the SVA1485 flight status page for this flight to view local times or setup timezone preferences in your user account.


Time Position Orientation Groundspeed Altitude Reporting Facility
EDT Latitude Longitude Course Direction KTS MPH feet Rate Location/Type
Wed 10:31:00 AM 28.0881 45.8451 225° Southwest  Level Estimated
Wed 10:32:00 AM 28.0262 45.7753 225° Southwest  Level Estimated
Wed 10:33:00 AM 27.9643 45.7056 225° Southwest  Level Estimated
Wed 10:34:00 AM 27.9024 45.6359 225° Southwest  Level Estimated
Wed 10:35:00 AM 27.8405 45.5664 225° Southwest  Level Estimated
Wed 10:36:00 AM 27.7784 45.4969 225° Southwest  Level Estimated
Wed 10:37:00 AM 27.7164 45.4275 225° Southwest  Level Estimated
Wed 10:38:00 AM 27.6543 45.3582 225° Southwest  Level Estimated
Wed 10:39:00 AM 27.5922 45.2889 225° Southwest  Level Estimated
Wed 10:40:00 AM 27.5301 45.2198 225° Southwest  Level Estimated
Wed 10:41:00 AM 27.4679 45.1507 225° Southwest  Level Estimated
Wed 10:42:00 AM 27.4057 45.0817 225° Southwest  Level Estimated
Wed 10:43:00 AM 27.3435 45.0127 225° Southwest  Level Estimated
Wed 10:44:00 AM 27.2812 44.9439 225° Southwest  Level Estimated
Wed 10:45:00 AM 27.2189 44.8751 224° Southwest  Level Estimated
Wed 10:46:00 AM 27.1565 44.8064 224° Southwest  Level Estimated
Wed 10:47:00 AM 27.0942 44.7378 224° Southwest  Level Estimated
Wed 10:48:00 AM 27.0318 44.6693 224° Southwest  Level Estimated
Wed 10:49:00 AM 26.9693 44.6008 224° Southwest  Level Estimated
Wed 10:50:00 AM 26.9068 44.5324 224° Southwest  Level Estimated
Wed 10:51:00 AM 26.8443 44.4641 224° Southwest  Level Estimated
Wed 10:52:00 AM 26.7818 44.3958 224° Southwest  Level Estimated
Wed 10:53:00 AM 26.7192 44.3277 224° Southwest  Level Estimated
Wed 10:54:00 AM 26.6566 44.2596 224° Southwest  Level Estimated
Wed 10:55:00 AM 26.5940 44.1916 224° Southwest  Level Estimated
Wed 10:56:00 AM 26.5313 44.1236 224° Southwest  Level Estimated
Wed 10:57:00 AM 26.4686 44.0557 224° Southwest  Level Estimated
Wed 10:58:00 AM 26.4059 43.9879 224° Southwest  Level Estimated
Wed 10:59:00 AM 26.3431 43.9202 224° Southwest  Level Estimated
Wed 11:00:00 AM 26.2803 43.8526 224° Southwest  Level Estimated
Wed 11:01:00 AM 26.2175 43.7850 224° Southwest  Level Estimated
Wed 11:02:00 AM 26.1546 43.7175 224° Southwest  Level Estimated
Wed 11:03:00 AM 26.0917 43.6501 224° Southwest  Level Estimated
Wed 11:04:00 AM 26.0288 43.5827 224° Southwest  Level Estimated
Wed 11:05:00 AM 25.9658 43.5154 224° Southwest  Level Estimated
Wed 11:06:00 AM 25.9028 43.4482 224° Southwest  Level Estimated
Wed 11:07:00 AM 25.8398 43.3811 224° Southwest  Level Estimated
Wed 11:08:00 AM 25.7768 43.3140 224° Southwest  Level Estimated
Wed 11:09:00 AM 25.7137 43.2470 224° Southwest  Level Estimated
Wed 11:10:00 AM 25.6506 43.1801 224° Southwest  Level Estimated
Wed 11:11:00 AM 25.5874 43.1132 224° Southwest  Level Estimated
Wed 11:12:00 AM 25.5243 43.0465 224° Southwest  Level Estimated
Wed 11:13:00 AM 25.4611 42.9798 224° Southwest  Level Estimated
Wed 11:14:00 AM 25.3978 42.9131 224° Southwest  Level Estimated
Wed 11:15:00 AM 25.3346 42.8465 224° Southwest  Level Estimated
Wed 11:16:00 AM 25.2713 42.7800 224° Southwest  Level Estimated
Wed 11:17:00 AM 25.2080 42.7136 224° Southwest  Level Estimated
Wed 11:18:00 AM 25.1446 42.6472 223° Southwest  Level Estimated
Wed 11:19:00 AM 25.0812 42.5809 223° Southwest  Level Estimated
Wed 11:20:00 AM 25.0178 42.5147 223° Southwest  Level Estimated
Wed 11:21:00 AM 24.9544 42.4485 223° Southwest  Level Estimated
Wed 11:22:00 AM 24.8909 42.3824 223° Southwest  Level Estimated
Wed 11:23:00 AM 24.8274 42.3164 223° Southwest  Level Estimated
Wed 11:24:00 AM 24.7639 42.2505 223° Southwest  Level Estimated
Wed 11:25:00 AM 24.7003 42.1846 223° Southwest  Level Estimated
Wed 11:26:00 AM 24.6368 42.1188 223° Southwest  Level Estimated
Wed 11:27:00 AM 24.5731 42.0530 223° Southwest  Level Estimated
Wed 11:28:00 AM 24.5095 41.9873 223° Southwest  Level Estimated
Wed 11:29:00 AM 24.4458 41.9217 223° Southwest  Level Estimated
Wed 11:30:00 AM 24.3821 41.8561 223° Southwest  Level Estimated
Wed 11:31:00 AM 24.3184 41.7906 223° Southwest  Level Estimated
Wed 11:32:00 AM 24.2547 41.7252 223° Southwest  Level Estimated
Wed 11:33:00 AM 24.1909 41.6599 223° Southwest  Level Estimated
Wed 11:34:00 AM 24.1271 41.5946 223° Southwest  Level Estimated
Wed 11:35:00 AM 24.0632 41.5293 223° Southwest  Level Estimated
Wed 11:36:00 AM 23.9994 41.4642 223° Southwest  Level Estimated
Wed 11:37:00 AM 23.9355 41.3991 223° Southwest  Level Estimated
Wed 11:38:00 AM 23.8715 41.3340 223° Southwest  Level Estimated
Wed 11:39:00 AM 23.8076 41.2691 223° Southwest  Level Estimated
Wed 11:40:00 AM 23.7436 41.2042 223° Southwest  Level Estimated
Wed 11:41:00 AM 23.6796 41.1393 223° Southwest  Level Estimated
Wed 11:42:00 AM 23.6156 41.0746 223° Southwest  Level Estimated
Wed 11:43:00 AM 23.5515 41.0098 223° Southwest  Level Estimated
Wed 11:44:00 AM 23.4875 40.9452 223° Southwest  Level Estimated
Wed 11:45:00 AM 23.4233 40.8806 223° Southwest  Level Estimated
Wed 11:46:00 AM 23.3592 40.8161 223° Southwest  Level Estimated
Wed 11:47:00 AM 23.2950 40.7516 223° Southwest  Level Estimated
Wed 11:48:00 AM 23.2309 40.6872 223° Southwest  Level Estimated
Wed 11:49:00 AM 23.1667 40.6229 223° Southwest  Level Estimated
Wed 11:50:00 AM 23.1024 40.5586 223° Southwest  Level Estimated
Wed 11:51:00 AM 23.0382 40.4944 223° Southwest  Level Estimated
Wed 11:52:00 AM 22.9739 40.4302 223° Southwest  Level Estimated
Wed 11:53:00 AM 22.9095 40.3661 223° Southwest  Level Estimated
Wed 11:54:00 AM 22.8452 40.3021 223° Southwest  Level Estimated
Wed 11:55:00 AM 22.7808 40.2381 223° Southwest  Level Estimated
Wed 11:56:00 AM 22.7164 40.1742 222° Southwest  Level Estimated
Wed 11:57:00 AM 22.6520 40.1103 222° Southwest  Level Estimated
Wed 11:58:00 AM 22.5876 40.0466 222° Southwest  Level Estimated
Wed 11:59:00 AM 22.5231 39.9828 222° Southwest  Level Estimated
Wed 12:00:00 PM 22.4586 39.9191 222° Southwest  Level Estimated
Wed 12:01:00 PM 22.3941 39.8555 222° Southwest  Level Estimated
Wed 12:02:00 PM 22.3295 39.7920 222° Southwest  Level Estimated
Wed 12:03:00 PM 22.2650 39.7285 222° Southwest  Level Estimated
Wed 12:04:00 PM 22.2004 39.6650 222° Southwest  Level Estimated
Wed 12:05:00 PM 22.1357 39.6017 222° Southwest  Level Estimated
Wed 12:06:00 PM 22.0711 39.5383 222° Southwest  Level Estimated
Wed 12:07:00 PM 22.0064 39.4751 222° Southwest  Level Estimated
Wed 12:08:00 PM 21.9417 39.4119 222° Southwest  Level Estimated
Wed 12:09:00 PM 21.8770 39.3487 222° Southwest  Level Estimated
Wed 12:10:00 PM 21.8123 39.2856 222° Southwest  Level Estimated
Wed 12:11:00 PM 21.7475 39.2226 222° Southwest  Level Estimated
Wed 12:12:00 PM 21.6827 39.1596 222° Southwest  Level Estimated
Wed 12:13:00 PM 21.6796 39.1565 222° Southwest  Level Estimated
Wed 12:14:00 PM 21.6796 39.1565 North  Level Estimated
Wed 12:15:00 PM 21.6796 39.1565 North  Level Estimated
Wed 12:16:00 PM 21.6796 39.1565 North  Level Estimated
Wed 12:17:00 PM 21.6796 39.1565 North  Level Estimated
Wed 12:18:00 PM 21.6796 39.1565 North  Level Estimated
Wed 12:19:00 PM 21.6796 39.1565 North  Level Estimated
Wed 12:20:00 PM 21.6796 39.1565 North  Level Estimated
Wed 12:21:00 PM 21.6796 39.1565 North  Level Estimated
Wed 12:22:00 PM 21.6796 39.1565 North  Level Estimated
Wed 12:23:00 PM 21.6796 39.1565 North  Level Estimated
Wed 12:24:00 PM 21.6796 39.1565 North  Level Estimated
Wed 12:25:00 PM 21.6796 39.1565 North  Level Estimated
Wed 12:26:00 PM 21.6796 39.1565 North  Level Estimated
Wed 12:27:00 PM 21.6796 39.1565 North  Level Estimated
Wed 12:28:00 PM 21.6796 39.1565 North  Level Estimated

Login

Don't have an account? Register now (free) for customized features, flight alerts, and more!